createdAt,value
2023-04-11T00:01:05.262Z,8.50
2023-04-11T00:03:33.632Z,8.50
2023-04-11T00:06:02.210Z,8.40
2023-04-11T00:08:31.818Z,8.70
2023-04-11T00:11:00.019Z,8.50
2023-04-11T00:13:28.208Z,8.50
2023-04-11T00:15:56.561Z,8.40
2023-04-11T00:18:25.775Z,8.40
2023-04-11T00:20:53.991Z,8.40
2023-04-11T00:23:22.274Z,8.30
2023-04-11T00:25:51.974Z,8.40
2023-04-11T00:28:20.089Z,8.30
2023-04-11T00:30:48.260Z,8.30
2023-04-11T00:33:16.658Z,8.20
2023-04-11T00:35:45.716Z,8.10
2023-04-11T00:38:13.988Z,8.60
2023-04-11T00:40:42.260Z,8.10
2023-04-11T00:43:11.940Z,8.10
2023-04-11T00:45:40.441Z,8.10
2023-04-11T00:48:09.011Z,8.20
2023-04-11T00:50:43.292Z,8.20
2023-04-11T00:53:14.203Z,8.20
2023-04-11T00:55:42.557Z,8.20
2023-04-11T00:58:12.160Z,8.20
2023-04-11T01:00:41.470Z,8.40
2023-04-11T01:03:10.282Z,8.30
2023-04-11T01:05:39.201Z,8.30
2023-04-11T01:08:09.206Z,8.30
2023-04-11T01:10:38.081Z,8.30
2023-04-11T01:13:06.539Z,8.40
2023-04-11T01:15:36.353Z,8.30
2023-04-11T01:18:05.896Z,8.30
2023-04-11T01:20:34.552Z,8.30
2023-04-11T01:23:03.913Z,8.30
2023-04-11T01:25:33.785Z,8.20
2023-04-11T01:28:03.157Z,8.20
2023-04-11T01:30:31.389Z,8.20
2023-04-11T01:33:00.233Z,8.10
2023-04-11T01:35:28.482Z,8.20
2023-04-11T01:37:56.784Z,8.20
2023-04-11T01:40:25.561Z,8.20
2023-04-11T01:42:56.114Z,7.90
2023-04-11T01:45:26.323Z,8.30
2023-04-11T01:47:54.999Z,8.30
2023-04-11T01:50:23.631Z,8.10
2023-04-11T01:52:52.653Z,8.00
2023-04-11T01:55:21.008Z,8.10
2023-04-11T01:57:49.256Z,7.90
2023-04-11T02:00:20.241Z,7.90
2023-04-11T02:02:48.542Z,7.80
2023-04-11T02:05:16.953Z,7.80
2023-04-11T02:07:45.246Z,8.00
2023-04-11T02:10:13.494Z,8.10
2023-04-11T02:12:41.722Z,8.00
2023-04-11T02:15:10.813Z,7.90
2023-04-11T02:17:45.322Z,7.90
2023-04-11T02:20:14.603Z,7.90
2023-04-11T02:22:43.143Z,7.80
2023-04-11T02:25:11.572Z,7.70
2023-04-11T02:27:39.779Z,7.80
2023-04-11T02:30:09.450Z,7.70
2023-04-11T02:32:39.533Z,7.80
2023-04-11T02:35:08.844Z,7.80
2023-04-11T02:37:37.499Z,7.90
2023-04-11T02:40:08.070Z,8.00
2023-04-11T02:42:36.435Z,8.00
2023-04-11T02:45:05.049Z,8.10
2023-04-11T02:47:33.343Z,8.00
2023-04-11T02:50:03.025Z,7.90
2023-04-11T02:52:33.462Z,8.20
2023-04-11T02:55:01.767Z,8.10
2023-04-11T02:57:30.316Z,8.20
2023-04-11T02:59:58.535Z,8.20
2023-04-11T03:02:27.017Z,8.20
2023-04-11T03:04:55.464Z,8.20
2023-04-11T03:07:27.054Z,8.20
2023-04-11T03:09:55.410Z,8.10
2023-04-11T03:12:23.570Z,8.10
2023-04-11T03:14:51.721Z,8.10
2023-04-11T03:17:20.103Z,8.10
2023-04-11T03:19:48.456Z,8.00
2023-04-11T03:22:17.334Z,8.10
2023-04-11T03:24:46.981Z,8.20
2023-04-11T03:27:15.506Z,8.10
2023-04-11T03:29:43.699Z,8.10
2023-04-11T03:32:11.919Z,8.10
2023-04-11T03:34:40.269Z,8.20
2023-04-11T03:37:08.486Z,8.20
2023-04-11T03:39:36.785Z,8.30
2023-04-11T03:42:06.552Z,8.30
2023-04-11T03:44:34.755Z,8.40
2023-04-11T03:47:03.100Z,8.30
2023-04-11T03:49:31.377Z,8.10
2023-04-11T03:51:59.579Z,8.20
2023-04-11T03:54:27.969Z,8.40
2023-04-11T03:56:57.237Z,8.40
2023-04-11T03:59:26.796Z,7.50
2023-04-11T04:01:55.192Z,8.40
2023-04-11T04:04:23.637Z,8.50
2023-04-11T04:06:56.552Z,8.40
2023-04-11T04:09:24.891Z,8.40
2023-04-11T04:11:53.061Z,8.40
2023-04-11T04:14:21.186Z,8.40
2023-04-11T04:16:50.809Z,8.40
2023-04-11T04:19:19.054Z,8.40
2023-04-11T04:21:47.451Z,8.30
2023-04-11T04:24:15.724Z,8.50
2023-04-11T04:26:43.944Z,8.30
2023-04-11T04:29:12.613Z,8.20
2023-04-11T04:31:41.586Z,8.30
2023-04-11T04:34:11.960Z,8.50
2023-04-11T04:36:47.642Z,8.40
2023-04-11T04:39:17.917Z,8.30
2023-04-11T04:41:48.592Z,8.40
2023-04-11T04:44:17.428Z,8.40
2023-04-11T04:46:46.013Z,8.40
2023-04-11T04:49:15.618Z,8.40
2023-04-11T04:51:43.906Z,8.50
2023-04-11T04:54:12.128Z,8.60
2023-04-11T04:56:41.433Z,8.50
2023-04-11T04:59:14.516Z,8.40
2023-04-11T05:01:43.124Z,8.30
2023-04-11T05:04:11.704Z,8.40
2023-04-11T05:06:41.371Z,8.30
2023-04-11T05:09:09.619Z,8.40
2023-04-11T05:11:37.893Z,8.60
2023-04-11T05:14:06.682Z,8.60
2023-04-11T05:16:35.043Z,8.80
2023-04-11T05:19:03.572Z,8.60
2023-04-11T05:21:31.965Z,8.50
2023-04-11T05:24:01.690Z,8.50
2023-04-11T05:26:29.935Z,8.50
2023-04-11T05:28:58.266Z,8.80
2023-04-11T05:31:26.816Z,8.60
2023-04-11T05:33:55.513Z,8.50
2023-04-11T05:36:24.470Z,8.50
2023-04-11T05:38:52.855Z,8.60
2023-04-11T05:41:22.924Z,8.80
2023-04-11T05:43:51.317Z,8.80
2023-04-11T05:46:19.610Z,8.80
2023-04-11T05:48:47.868Z,8.80
2023-04-11T05:51:16.091Z,8.70
2023-04-11T05:53:44.938Z,8.70
2023-04-11T05:56:13.223Z,8.80
2023-04-11T05:58:44.524Z,8.80
2023-04-11T06:01:18.576Z,8.80
2023-04-11T06:03:47.313Z,9.00
2023-04-11T06:06:16.115Z,8.90
2023-04-11T06:08:44.448Z,9.00
2023-04-11T06:11:12.648Z,8.90
2023-04-11T06:13:42.851Z,8.90
2023-04-11T06:16:11.716Z,8.80
2023-04-11T06:18:40.173Z,8.90
2023-04-11T06:21:08.554Z,8.90
2023-04-11T06:23:36.756Z,9.00
2023-04-11T06:26:06.523Z,9.10
2023-04-11T06:28:34.882Z,9.10
2023-04-11T06:31:04.636Z,9.10
2023-04-11T06:33:33.078Z,9.20
2023-04-11T06:36:01.400Z,9.20
2023-04-11T06:38:30.000Z,9.40
2023-04-11T06:40:58.306Z,9.40
2023-04-11T06:43:26.558Z,9.40
2023-04-11T06:45:54.816Z,9.50
2023-04-11T06:48:24.436Z,9.50
2023-04-11T06:50:52.643Z,9.40
2023-04-11T06:53:21.219Z,9.40
2023-04-11T06:55:50.576Z,9.30
2023-04-11T06:58:18.871Z,9.30
2023-04-11T07:00:47.103Z,9.10
2023-04-11T07:03:15.465Z,9.00
2023-04-11T07:05:45.241Z,9.10
2023-04-11T07:08:13.537Z,8.90
2023-04-11T07:10:41.900Z,9.00
2023-04-11T07:13:10.156Z,8.90
2023-04-11T07:15:38.406Z,8.80
2023-04-11T07:18:06.840Z,8.60
2023-04-11T07:20:36.089Z,8.80
2023-04-11T07:23:05.752Z,8.70
2023-04-11T07:25:34.268Z,8.70
2023-04-11T07:28:07.466Z,8.80
2023-04-11T07:30:36.578Z,8.90
2023-04-11T07:33:05.253Z,8.80
2023-04-11T07:35:34.725Z,8.80
2023-04-11T07:38:03.462Z,8.80
2023-04-11T07:40:33.281Z,8.70
2023-04-11T07:43:02.276Z,8.60
2023-04-11T07:45:30.791Z,8.50
2023-04-11T07:47:59.094Z,8.50
2023-04-11T07:50:27.340Z,8.60
2023-04-11T07:52:55.814Z,8.60
2023-04-11T07:55:24.062Z,8.50
2023-04-11T07:57:53.854Z,8.40
2023-04-11T08:00:23.965Z,8.50
2023-04-11T08:02:52.942Z,8.40
2023-04-11T08:05:21.536Z,8.40
2023-04-11T08:07:49.799Z,8.70
2023-04-11T08:10:18.214Z,8.60
2023-04-11T08:12:46.419Z,8.60
2023-04-11T08:15:16.291Z,8.60
2023-04-11T08:17:49.737Z,8.80
2023-04-11T08:20:19.787Z,8.80
2023-04-11T08:22:47.977Z,8.80
2023-04-11T08:25:17.021Z,8.60
2023-04-11T08:27:45.411Z,8.70
2023-04-11T08:30:16.925Z,8.70
2023-04-11T08:32:45.353Z,9.00
2023-04-11T08:35:13.588Z,9.00
2023-04-11T08:37:41.859Z,8.80
2023-04-11T08:40:12.036Z,9.00
2023-04-11T08:42:40.289Z,8.90
2023-04-11T08:45:10.238Z,9.00
2023-04-11T08:47:39.892Z,9.20
2023-04-11T08:50:10.049Z,9.40
2023-04-11T08:52:42.498Z,9.40
2023-04-11T08:55:13.531Z,9.40
2023-04-11T08:57:42.369Z,9.40
2023-04-11T09:00:14.436Z,9.40
2023-04-11T09:02:59.435Z,9.50
2023-04-11T09:05:32.137Z,9.60
2023-04-11T09:08:02.328Z,9.50
2023-04-11T09:10:30.843Z,9.50
2023-04-11T09:12:59.549Z,9.50
2023-04-11T09:15:30.302Z,9.40
2023-04-11T09:18:01.079Z,9.40
2023-04-11T09:20:31.156Z,9.40
2023-04-11T09:23:00.217Z,9.50
2023-04-11T09:25:28.943Z,9.40
2023-04-11T09:28:10.690Z,9.30
2023-04-11T09:30:38.990Z,9.30
2023-04-11T09:33:23.325Z,9.10
2023-04-11T09:35:54.284Z,9.20
2023-04-11T09:38:31.799Z,9.00
2023-04-11T09:41:01.631Z,9.10
2023-04-11T09:43:50.024Z,9.10
2023-04-11T09:46:18.749Z,9.10
2023-04-11T09:48:49.343Z,9.00
2023-04-11T09:51:34.291Z,9.10
2023-04-11T09:54:05.542Z,9.30
2023-04-11T09:56:35.380Z,9.20
2023-04-11T09:59:05.258Z,9.20
2023-04-11T10:01:33.826Z,9.20
2023-04-11T10:04:04.499Z,9.20
2023-04-11T10:06:42.427Z,9.30
2023-04-11T10:09:14.018Z,9.10
2023-04-11T10:11:44.322Z,9.20
2023-04-11T10:14:44.103Z,9.40
2023-04-11T10:17:17.053Z,9.50
2023-04-11T10:19:51.567Z,9.60
2023-04-11T10:23:01.136Z,9.60
2023-04-11T10:25:30.093Z,9.70
2023-04-11T10:28:01.991Z,9.80
2023-04-11T10:31:03.241Z,10.00
2023-04-11T10:33:32.953Z,9.80
2023-04-11T10:36:06.406Z,9.70
2023-04-11T10:38:51.422Z,9.80
2023-04-11T10:41:31.817Z,9.70
2023-04-11T10:44:18.131Z,9.70
2023-04-11T10:46:54.003Z,9.70
2023-04-11T10:49:40.370Z,9.50
2023-04-11T10:52:22.210Z,9.50
2023-04-11T10:54:52.508Z,9.50
2023-04-11T10:57:22.814Z,9.60
2023-04-11T11:00:16.697Z,9.50
2023-04-11T11:02:45.200Z,9.50
2023-04-11T11:05:21.869Z,9.70
2023-04-11T11:07:54.447Z,9.90
2023-04-11T11:10:40.381Z,10.20
2023-04-11T11:13:09.181Z,10.50
2023-04-11T11:15:38.575Z,10.70
2023-04-11T11:18:10.788Z,10.90
2023-04-11T11:20:39.307Z,10.90
2023-04-11T11:23:11.510Z,11.10
2023-04-11T11:25:39.772Z,11.20
2023-04-11T11:28:10.398Z,11.20
2023-04-11T11:30:39.755Z,11.40
2023-04-11T11:33:27.511Z,11.60
2023-04-11T11:35:59.430Z,12.00
2023-04-11T11:38:30.904Z,11.50
2023-04-11T11:41:00.439Z,11.20
2023-04-11T11:43:29.255Z,11.30
2023-04-11T11:46:18.581Z,11.60
2023-04-11T11:49:01.413Z,11.70
2023-04-11T11:51:41.950Z,12.10
2023-04-11T11:54:12.864Z,12.10
2023-04-11T11:56:42.697Z,12.10
2023-04-11T11:59:10.992Z,12.00
2023-04-11T12:01:43.295Z,12.30
2023-04-11T12:04:13.073Z,11.90
2023-04-11T12:06:41.458Z,12.00
2023-04-11T12:09:12.269Z,12.30
2023-04-11T12:11:41.909Z,12.30
2023-04-11T12:14:12.363Z,12.50
2023-04-11T12:16:40.918Z,12.40
2023-04-11T12:19:10.426Z,11.70
2023-04-11T12:21:38.815Z,11.60
2023-04-11T12:24:08.656Z,11.60
2023-04-11T12:26:42.738Z,11.70
2023-04-11T12:29:17.323Z,11.40
2023-04-11T12:31:46.037Z,10.80
2023-04-11T12:34:14.552Z,9.90
2023-04-11T12:36:42.851Z,9.10
2023-04-11T12:39:11.191Z,8.60
2023-04-11T12:41:40.850Z,8.60
2023-04-11T12:44:09.094Z,8.50
2023-04-11T12:46:37.445Z,8.40
2023-04-11T12:49:05.756Z,8.50
2023-04-11T12:51:34.030Z,8.50
2023-04-11T12:54:02.498Z,8.40
2023-04-11T12:56:30.952Z,8.50
2023-04-11T12:59:00.640Z,8.70
2023-04-11T13:01:28.891Z,8.90
2023-04-11T13:03:57.429Z,8.70
2023-04-11T13:06:26.041Z,8.80
2023-04-11T13:08:54.540Z,8.80
2023-04-11T13:11:22.978Z,9.10
2023-04-11T13:13:52.421Z,9.40
2023-04-11T13:16:22.238Z,9.30
2023-04-11T13:18:51.311Z,9.50
2023-04-11T13:21:20.758Z,10.10
2023-04-11T13:23:49.026Z,10.70
2023-04-11T13:26:17.423Z,11.60
2023-04-11T13:28:52.034Z,11.80
2023-04-11T13:31:26.796Z,12.10
2023-04-11T13:33:55.419Z,13.00
2023-04-11T13:36:23.848Z,12.60
2023-04-11T13:38:54.753Z,13.00
2023-04-11T13:41:23.838Z,14.10
2023-04-11T13:43:53.224Z,14.60
2023-04-11T13:46:23.249Z,15.60
2023-04-11T13:48:51.839Z,15.60
2023-04-11T13:51:20.201Z,15.10
2023-04-11T13:53:48.386Z,14.30
2023-04-11T13:56:16.861Z,13.90
2023-04-11T13:58:45.340Z,13.50
2023-04-11T14:01:13.591Z,13.50
2023-04-11T14:03:44.687Z,13.50
2023-04-11T14:06:12.949Z,13.20
2023-04-11T14:08:41.210Z,12.60
2023-04-11T14:11:09.483Z,12.10
2023-04-11T14:13:38.221Z,11.60
2023-04-11T14:16:09.199Z,11.20
2023-04-11T14:18:37.975Z,10.50
2023-04-11T14:21:08.743Z,10.30
2023-04-11T14:23:37.191Z,10.50
2023-04-11T14:26:06.371Z,10.70
2023-04-11T14:28:34.764Z,10.80
2023-04-11T14:31:03.302Z,10.60
2023-04-11T14:33:32.436Z,10.50
2023-04-11T14:36:01.104Z,10.40
2023-04-11T14:38:31.814Z,10.20
2023-04-11T14:41:00.089Z,10.10
2023-04-11T14:43:28.222Z,10.00
2023-04-11T14:45:57.553Z,9.80
2023-04-11T14:48:27.314Z,9.50
2023-04-11T14:50:55.797Z,9.50
2023-04-11T14:53:24.042Z,9.40
2023-04-11T14:55:53.684Z,9.50
2023-04-11T14:58:21.856Z,9.40
2023-04-11T15:00:50.048Z,9.10
2023-04-11T15:03:21.913Z,8.90
2023-04-11T15:05:50.554Z,8.70
2023-04-11T15:08:18.750Z,8.60
2023-04-11T15:10:49.443Z,8.50
2023-04-11T15:13:19.108Z,8.30
2023-04-11T15:15:47.295Z,8.40
2023-04-11T15:18:24.790Z,8.30
2023-04-11T15:20:53.480Z,8.20
2023-04-11T15:23:22.483Z,8.30
2023-04-11T15:25:55.270Z,8.30
2023-04-11T15:28:25.915Z,8.40
2023-04-11T15:30:55.666Z,8.30
2023-04-11T15:33:24.649Z,8.50
2023-04-11T15:35:54.640Z,8.70
2023-04-11T15:38:23.044Z,9.00
2023-04-11T15:40:51.899Z,9.50
2023-04-11T15:43:20.256Z,9.70
2023-04-11T15:45:52.264Z,9.80
2023-04-11T15:48:20.645Z,9.80
2023-04-11T15:50:48.933Z,9.70
2023-04-11T15:53:17.180Z,9.60
2023-04-11T15:55:47.069Z,9.10
2023-04-11T15:58:15.281Z,9.10
2023-04-11T16:00:46.904Z,8.90
2023-04-11T16:03:17.984Z,8.80
2023-04-11T16:05:47.186Z,8.90
2023-04-11T16:08:15.819Z,8.80
2023-04-11T16:10:43.991Z,8.70
2023-04-11T16:13:12.328Z,8.60
2023-04-11T16:15:40.534Z,8.60
2023-04-11T16:18:08.787Z,8.50
2023-04-11T16:20:38.472Z,8.40
2023-04-11T16:23:06.919Z,8.40
2023-04-11T16:25:35.709Z,8.40
2023-04-11T16:28:03.883Z,8.40
2023-04-11T16:30:32.096Z,8.30
2023-04-11T16:33:00.397Z,8.40
2023-04-11T16:35:29.548Z,8.30
2023-04-11T16:37:59.183Z,8.00
2023-04-11T16:40:27.924Z,8.00
2023-04-11T16:42:56.460Z,8.00
2023-04-11T16:45:25.468Z,8.00
2023-04-11T16:47:53.748Z,8.10
2023-04-11T16:50:22.315Z,8.20
2023-04-11T16:52:50.713Z,8.20
2023-04-11T16:55:20.515Z,8.30
2023-04-11T16:57:48.841Z,8.20
2023-04-11T17:00:20.363Z,8.20
2023-04-11T17:02:48.770Z,8.10
2023-04-11T17:05:18.825Z,8.10
2023-04-11T17:07:47.213Z,8.10
2023-04-11T17:10:15.639Z,8.00
2023-04-11T17:12:45.262Z,8.00
2023-04-11T17:15:13.679Z,8.00
2023-04-11T17:17:41.962Z,7.90
2023-04-11T17:20:11.979Z,7.80
2023-04-11T17:22:43.093Z,7.80
2023-04-11T17:25:12.064Z,7.80
2023-04-11T17:27:41.721Z,7.60
2023-04-11T17:30:12.394Z,7.50
2023-04-11T17:32:40.820Z,7.40
2023-04-11T17:35:10.076Z,7.40
2023-04-11T17:37:39.580Z,7.30
2023-04-11T17:40:14.302Z,7.20
2023-04-11T17:42:42.615Z,7.30
2023-04-11T17:47:44.506Z,7.10
2023-04-11T17:50:14.673Z,7.10
2023-04-11T17:52:44.954Z,7.00
2023-04-11T17:55:15.875Z,6.80
2023-04-11T17:57:44.668Z,6.70
2023-04-11T18:00:19.732Z,6.80
2023-04-11T18:02:52.381Z,6.80
2023-04-11T18:05:25.269Z,6.70
2023-04-11T18:07:56.400Z,6.60
2023-04-11T18:10:27.075Z,6.70
2023-04-11T18:12:58.268Z,6.50
2023-04-11T18:15:28.296Z,6.50
2023-04-11T18:17:56.517Z,6.40
2023-04-11T18:20:24.846Z,6.40
2023-04-11T18:22:55.986Z,6.50
2023-04-11T18:25:24.606Z,6.50
2023-04-11T18:27:52.918Z,6.50
2023-04-11T18:30:21.127Z,6.40
2023-04-11T18:32:52.114Z,6.40
2023-04-11T18:35:21.157Z,6.40
2023-04-11T18:37:49.356Z,6.30
2023-04-11T18:40:18.261Z,6.20
2023-04-11T18:42:50.595Z,6.20
2023-04-11T18:45:20.599Z,6.10
2023-04-11T18:47:51.427Z,6.10
2023-04-11T18:50:22.506Z,6.30
2023-04-11T18:52:55.617Z,6.30
2023-04-11T18:55:25.751Z,6.30
2023-04-11T18:57:57.112Z,6.20
2023-04-11T19:00:28.633Z,6.20
2023-04-11T19:02:58.412Z,6.20
2023-04-11T19:05:27.088Z,6.20
2023-04-11T19:07:55.944Z,6.20
2023-04-11T19:10:24.183Z,6.20
2023-04-11T19:12:52.351Z,6.20
2023-04-11T19:15:20.702Z,6.00
2023-04-11T19:17:48.967Z,6.00
2023-04-11T19:20:19.101Z,5.90
2023-04-11T19:22:47.585Z,5.80
2023-04-11T19:25:15.857Z,5.70
2023-04-11T19:27:44.385Z,5.60
2023-04-11T19:30:14.388Z,5.50
2023-04-11T19:32:45.898Z,5.50
2023-04-11T19:35:15.561Z,5.60
2023-04-11T19:37:45.074Z,5.70
2023-04-11T19:40:14.428Z,5.60
2023-04-11T19:42:43.165Z,5.60
2023-04-11T19:45:12.975Z,5.60
2023-04-11T19:47:42.014Z,5.60
2023-04-11T19:50:13.841Z,5.50
2023-04-11T19:52:44.314Z,5.50
2023-04-11T19:55:13.415Z,5.40
2023-04-11T19:57:43.575Z,5.40
2023-04-11T20:00:13.931Z,5.40
2023-04-11T20:02:48.133Z,5.40
2023-04-11T20:05:18.366Z,5.50
2023-04-11T20:07:48.949Z,5.40
2023-04-11T20:10:18.110Z,5.40
2023-04-11T20:12:46.382Z,5.60
2023-04-11T20:15:14.862Z,5.70
2023-04-11T20:17:45.406Z,5.70
2023-04-11T20:20:15.259Z,5.60
2023-04-11T20:22:44.716Z,5.50
2023-04-11T20:25:14.475Z,5.50
2023-04-11T20:27:44.242Z,5.50
2023-04-11T20:30:14.151Z,5.30
2023-04-11T20:32:43.276Z,5.30
2023-04-11T20:35:12.998Z,5.30
2023-04-11T20:37:43.423Z,5.30
2023-04-11T20:40:14.382Z,5.30
2023-04-11T20:42:42.966Z,5.20
2023-04-11T20:45:13.599Z,5.20
2023-04-11T20:47:45.961Z,5.20
2023-04-11T20:50:16.798Z,5.20
2023-04-11T20:52:47.283Z,5.20
2023-04-11T20:55:16.859Z,5.20
2023-04-11T20:57:45.699Z,5.20
2023-04-11T21:00:16.876Z,5.10
2023-04-11T21:02:49.943Z,5.00
2023-04-11T21:05:22.469Z,4.90
2023-04-11T21:07:54.093Z,5.10
2023-04-11T21:10:24.074Z,5.00
2023-04-11T21:12:53.947Z,5.00
2023-04-11T21:15:23.034Z,5.00
2023-04-11T21:17:52.296Z,4.90
2023-04-11T21:20:22.350Z,5.00
2023-04-11T21:22:53.818Z,5.00
2023-04-11T21:25:24.903Z,5.00
2023-04-11T21:27:53.276Z,4.90
2023-04-11T21:30:21.667Z,4.80
2023-04-11T21:32:49.931Z,4.70
2023-04-11T21:35:18.315Z,4.80
2023-04-11T21:37:48.899Z,4.70
2023-04-11T21:40:17.722Z,4.60
2023-04-11T21:42:47.245Z,4.50
2023-04-11T21:45:15.575Z,4.40
2023-04-11T21:47:43.846Z,4.40
2023-04-11T21:50:13.112Z,4.40
2023-04-11T21:52:41.815Z,4.40
2023-04-11T21:55:11.493Z,4.40
2023-04-11T21:57:39.756Z,4.40
2023-04-11T22:00:11.830Z,4.40
2023-04-11T22:02:40.819Z,4.40
2023-04-11T22:05:09.958Z,4.30
2023-04-11T22:07:47.313Z,4.30
2023-04-11T22:10:23.272Z,4.30
2023-04-11T22:12:53.817Z,4.40
2023-04-11T22:15:23.941Z,4.40
2023-04-11T22:17:54.478Z,4.40
2023-04-11T22:20:22.969Z,4.40
2023-04-11T22:22:51.361Z,4.50
2023-04-11T22:25:22.268Z,4.50
2023-04-11T22:27:54.143Z,4.50
2023-04-11T22:30:24.838Z,4.40
2023-04-11T22:32:54.273Z,4.30
2023-04-11T22:35:23.339Z,4.30
2023-04-11T22:37:53.642Z,4.30
2023-04-11T22:40:23.088Z,4.20
2023-04-11T22:42:52.221Z,4.20
2023-04-11T22:45:23.727Z,4.20
2023-04-11T22:47:55.646Z,4.30
2023-04-11T22:50:24.769Z,4.20
2023-04-11T22:52:54.627Z,4.20
2023-04-11T22:55:24.678Z,4.20
2023-04-11T22:57:53.066Z,4.30
2023-04-11T23:00:22.219Z,4.30
2023-04-11T23:02:52.291Z,4.40
2023-04-11T23:05:20.782Z,4.40
2023-04-11T23:07:48.999Z,4.40
2023-04-11T23:10:17.480Z,4.30
2023-04-11T23:12:45.891Z,4.30
2023-04-11T23:15:14.689Z,4.20
2023-04-11T23:17:43.241Z,4.20
2023-04-11T23:20:14.234Z,4.10
2023-04-11T23:22:43.960Z,4.00
2023-04-11T23:25:14.926Z,4.00
2023-04-11T23:27:46.176Z,3.90
2023-04-11T23:30:17.419Z,3.80
2023-04-11T23:32:46.036Z,3.90
2023-04-11T23:35:17.269Z,3.90
2023-04-11T23:37:45.950Z,3.90
2023-04-11T23:40:14.467Z,3.80
2023-04-11T23:42:43.074Z,3.80
2023-04-11T23:45:12.549Z,3.80
2023-04-11T23:47:41.159Z,3.90
2023-04-11T23:50:10.996Z,4.00
2023-04-11T23:52:40.801Z,3.90
2023-04-11T23:55:10.478Z,4.20
2023-04-11T23:57:38.815Z,4.00
